createdAt,value
2022-11-24T00:00:15.297Z,9.30
2022-11-24T00:01:20.770Z,9.80
2022-11-24T00:02:23.418Z,9.50
2022-11-24T00:03:25.787Z,8.93
2022-11-24T00:04:27.826Z,8.57
2022-11-24T00:05:29.591Z,9.00
2022-11-24T00:06:33.067Z,9.75
2022-11-24T00:07:35.039Z,9.77
2022-11-24T00:08:38.361Z,8.60
2022-11-24T00:09:40.355Z,8.90
2022-11-24T00:10:42.464Z,10.13
2022-11-24T00:11:44.427Z,9.60
2022-11-24T00:12:46.202Z,10.43
2022-11-24T00:13:48.268Z,9.50
2022-11-24T00:14:50.215Z,8.00
2022-11-24T00:15:52.022Z,9.15
2022-11-24T00:16:54.028Z,10.63
2022-11-24T00:17:56.367Z,10.23
2022-11-24T00:19:01.109Z,10.75
2022-11-24T00:20:03.051Z,10.45
2022-11-24T00:21:05.332Z,10.00
2022-11-24T00:22:07.258Z,10.70
2022-11-24T00:23:10.506Z,9.98
2022-11-24T00:24:12.494Z,9.52
2022-11-24T00:25:14.704Z,9.40
2022-11-24T00:26:19.767Z,9.63
2022-11-24T00:27:21.544Z,10.55
2022-11-24T00:28:23.473Z,8.73
2022-11-24T00:29:25.421Z,8.30
2022-11-24T00:30:27.386Z,8.50
2022-11-24T00:31:31.502Z,8.77
2022-11-24T00:32:33.588Z,8.52
2022-11-24T00:33:35.538Z,9.63
2022-11-24T00:34:37.678Z,9.80
2022-11-24T00:35:39.637Z,8.85
2022-11-24T00:36:42.191Z,10.40
2022-11-24T00:37:44.229Z,10.02
2022-11-24T00:38:48.122Z,9.90
2022-11-24T00:39:50.336Z,11.07
2022-11-24T00:40:52.803Z,10.98
2022-11-24T00:41:54.963Z,10.68
2022-11-24T00:42:56.888Z,9.48
2022-11-24T00:43:59.563Z,9.40
2022-11-24T00:45:12.976Z,9.35
2022-11-24T00:46:15.950Z,9.32
2022-11-24T00:47:18.091Z,8.35
2022-11-24T00:48:20.089Z,8.70
2022-11-24T00:49:22.030Z,9.63
2022-11-24T00:50:24.273Z,9.85
2022-11-24T00:51:28.439Z,9.95
2022-11-24T00:52:30.468Z,9.60
2022-11-24T00:53:32.821Z,9.52
2022-11-24T00:54:35.048Z,9.48
2022-11-24T00:55:37.462Z,10.23
2022-11-24T00:56:39.504Z,10.55
2022-11-24T00:57:41.644Z,10.43
2022-11-24T00:58:43.894Z,11.15
2022-11-24T00:59:45.895Z,10.45
2022-11-24T01:00:47.868Z,9.73
2022-11-24T01:01:50.122Z,9.02
2022-11-24T01:02:52.817Z,9.32
2022-11-24T01:03:55.965Z,9.70
2022-11-24T01:04:57.745Z,9.63
2022-11-24T01:06:16.289Z,9.55
2022-11-24T01:07:18.286Z,9.88
2022-11-24T01:08:20.319Z,10.80
2022-11-24T01:09:22.954Z,10.48
2022-11-24T01:10:24.913Z,10.93
2022-11-24T01:11:28.459Z,10.32
2022-11-24T01:12:30.223Z,9.75
2022-11-24T01:13:32.167Z,9.68
2022-11-24T01:14:34.323Z,9.68
2022-11-24T01:15:37.486Z,10.57
2022-11-24T01:16:39.469Z,9.85
2022-11-24T01:17:41.377Z,9.95
2022-11-24T01:18:43.505Z,10.43
2022-11-24T01:19:47.441Z,10.57
2022-11-24T01:20:49.650Z,10.38
2022-11-24T01:21:51.553Z,10.50
2022-11-24T01:22:53.335Z,9.98
2022-11-24T01:23:55.265Z,10.70
2022-11-24T01:24:57.442Z,9.90
2022-11-24T01:25:59.252Z,9.25
2022-11-24T01:27:01.206Z,8.63
2022-11-24T01:28:03.166Z,8.75
2022-11-24T01:29:05.387Z,9.02
2022-11-24T01:30:08.158Z,8.63
2022-11-24T01:31:10.908Z,10.07
2022-11-24T01:32:12.890Z,10.82
2022-11-24T01:33:14.876Z,11.43
2022-11-24T01:34:16.741Z,10.65
2022-11-24T01:35:18.518Z,10.50
2022-11-24T01:36:20.972Z,10.75
2022-11-24T01:37:24.269Z,11.60
2022-11-24T01:38:27.453Z,11.68
2022-11-24T01:39:29.811Z,13.27
2022-11-24T01:40:31.794Z,12.00
2022-11-24T01:41:34.618Z,10.88
2022-11-24T01:42:53.155Z,12.52
2022-11-24T01:43:56.277Z,12.48
2022-11-24T01:45:25.534Z,12.98
2022-11-24T01:46:32.505Z,10.68
2022-11-24T01:47:40.806Z,10.23
2022-11-24T01:48:49.024Z,10.75
2022-11-24T01:50:00.229Z,9.57
2022-11-24T01:52:16.211Z,10.25
2022-11-24T01:53:18.148Z,11.45
2022-11-24T01:54:29.059Z,10.48
2022-11-24T01:55:34.742Z,11.25
2022-11-24T01:56:40.186Z,12.23
2022-11-24T01:58:10.556Z,10.52
2022-11-24T01:59:14.122Z,11.07
2022-11-24T02:00:17.108Z,10.80
2022-11-24T02:01:19.164Z,10.60
2022-11-24T02:02:21.514Z,11.02
2022-11-24T02:03:29.864Z,10.00
2022-11-24T02:04:34.704Z,10.38
2022-11-24T02:05:51.026Z,10.77
2022-11-24T02:06:54.351Z,10.63
2022-11-24T02:08:00.525Z,10.43
2022-11-24T02:09:28.175Z,10.63
2022-11-24T02:10:30.538Z,11.20
2022-11-24T02:11:37.317Z,10.98
2022-11-24T02:12:41.624Z,11.55
2022-11-24T02:13:44.544Z,11.30
2022-11-24T02:14:46.676Z,11.60
2022-11-24T02:15:49.450Z,12.23
2022-11-24T02:16:52.114Z,11.88
2022-11-24T02:17:53.930Z,12.88
2022-11-24T02:18:55.918Z,12.48
2022-11-24T02:20:07.720Z,12.43
2022-11-24T02:21:12.351Z,12.02
2022-11-24T02:22:38.056Z,11.93
2022-11-24T02:23:51.039Z,12.15
2022-11-24T02:25:01.230Z,11.30
2022-11-24T02:26:08.399Z,11.20
2022-11-24T02:27:12.058Z,11.35
2022-11-24T02:28:17.978Z,10.25
2022-11-24T02:29:23.147Z,10.82
2022-11-24T02:30:25.193Z,11.02
2022-11-24T02:32:43.769Z,11.57
2022-11-24T02:33:45.886Z,12.43
2022-11-24T02:34:47.743Z,12.73
2022-11-24T02:35:49.547Z,12.00
2022-11-24T02:36:51.372Z,12.48
2022-11-24T02:37:53.158Z,12.98
2022-11-24T02:38:55.144Z,13.07
2022-11-24T02:39:57.266Z,12.95
2022-11-24T02:41:03.995Z,13.63
2022-11-24T02:42:10.437Z,12.93
2022-11-24T02:43:16.736Z,13.25
2022-11-24T02:44:22.085Z,12.02
2022-11-24T02:45:24.798Z,11.20
2022-11-24T02:46:26.710Z,11.73
2022-11-24T02:47:28.867Z,12.30
2022-11-24T02:48:30.798Z,13.25
2022-11-24T02:49:32.636Z,12.65
2022-11-24T02:50:34.594Z,13.52
2022-11-24T02:51:36.410Z,12.38
2022-11-24T02:52:38.270Z,12.35
2022-11-24T02:53:40.016Z,12.85
2022-11-24T02:54:42.026Z,13.52
2022-11-24T02:55:44.025Z,13.98
2022-11-24T02:56:45.994Z,13.63
2022-11-24T02:57:47.845Z,14.23
2022-11-24T02:58:49.886Z,14.93
2022-11-24T02:59:51.662Z,15.05
2022-11-24T03:00:54.496Z,14.40
2022-11-24T03:01:56.613Z,14.43
2022-11-24T03:02:58.881Z,14.85
2022-11-24T03:04:01.990Z,13.45
2022-11-24T03:05:04.165Z,14.18
2022-11-24T03:06:06.221Z,13.80
2022-11-24T03:07:08.263Z,13.90
2022-11-24T03:08:10.108Z,14.05
2022-11-24T03:09:12.136Z,14.82
2022-11-24T03:10:14.121Z,14.65
2022-11-24T03:11:15.984Z,15.18
2022-11-24T03:12:17.776Z,15.90
2022-11-24T03:13:19.851Z,13.88
2022-11-24T03:14:21.823Z,14.02
2022-11-24T03:15:23.863Z,14.63
2022-11-24T03:16:25.907Z,14.35
2022-11-24T03:17:27.700Z,15.93
2022-11-24T03:18:29.904Z,15.95
2022-11-24T03:19:31.882Z,15.50
2022-11-24T03:20:33.945Z,17.52
2022-11-24T03:21:37.100Z,17.55
2022-11-24T03:22:38.871Z,16.05
2022-11-24T03:23:40.813Z,16.08
2022-11-24T03:24:42.661Z,16.40
2022-11-24T03:25:44.647Z,16.48
2022-11-24T03:26:46.443Z,16.80
2022-11-24T03:27:48.499Z,16.67
2022-11-24T03:28:50.587Z,18.13
2022-11-24T03:29:53.471Z,17.83
2022-11-24T03:30:55.283Z,17.17
2022-11-24T03:31:57.146Z,17.00
2022-11-24T03:32:58.955Z,19.17
2022-11-24T03:34:01.070Z,18.15
2022-11-24T03:35:03.103Z,18.98
2022-11-24T03:36:06.437Z,18.25
2022-11-24T03:37:08.235Z,17.67
2022-11-24T03:38:10.459Z,18.75
2022-11-24T03:39:12.368Z,18.33
2022-11-24T03:40:14.421Z,17.75
2022-11-24T03:41:16.237Z,17.27
2022-11-24T03:42:18.089Z,17.77
2022-11-24T03:43:20.133Z,18.77
2022-11-24T03:44:22.586Z,20.17
2022-11-24T03:46:46.364Z,21.35
2022-11-24T03:47:51.974Z,22.58
2022-11-24T03:48:54.015Z,25.92
2022-11-24T03:49:56.005Z,19.60
2022-11-24T03:51:00.074Z,22.42
2022-11-24T03:52:07.632Z,22.75
2022-11-24T03:53:10.357Z,24.38
2022-11-24T03:54:12.207Z,24.80
2022-11-24T03:55:14.197Z,24.13
2022-11-24T03:56:16.417Z,22.83
2022-11-24T03:57:18.383Z,24.55
2022-11-24T03:58:20.581Z,19.75
2022-11-24T03:59:22.479Z,21.80
2022-11-24T04:00:24.502Z,20.70
2022-11-24T04:01:26.425Z,18.05
2022-11-24T04:02:28.314Z,19.98
2022-11-24T04:03:30.442Z,20.00
2022-11-24T04:04:32.443Z,21.58
2022-11-24T04:05:36.579Z,21.55
2022-11-24T04:06:38.969Z,21.65
2022-11-24T04:07:41.039Z,20.58
2022-11-24T04:08:43.031Z,21.35
2022-11-24T04:09:45.502Z,20.92
2022-11-24T04:10:52.834Z,20.02
2022-11-24T04:12:13.210Z,18.05
2022-11-24T04:13:16.530Z,17.98
2022-11-24T04:14:19.616Z,18.38
2022-11-24T04:15:22.139Z,18.65
2022-11-24T04:16:24.057Z,18.02
2022-11-24T04:17:26.073Z,19.50
2022-11-24T04:18:28.044Z,20.10
2022-11-24T04:19:30.065Z,20.50
2022-11-24T04:20:31.842Z,19.52
2022-11-24T04:21:33.654Z,19.42
2022-11-24T04:22:35.852Z,19.55
2022-11-24T04:23:37.601Z,19.50
2022-11-24T04:24:39.379Z,18.42
2022-11-24T04:25:42.351Z,19.00
2022-11-24T04:26:44.159Z,18.92
2022-11-24T04:27:50.317Z,19.55
2022-11-24T04:28:52.280Z,18.13
2022-11-24T04:29:54.431Z,17.23
2022-11-24T04:31:01.679Z,18.60
2022-11-24T04:32:03.592Z,18.35
2022-11-24T04:33:05.593Z,18.67
2022-11-24T04:34:07.589Z,18.75
2022-11-24T04:35:09.531Z,19.00
2022-11-24T04:36:11.318Z,18.98
2022-11-24T04:37:13.495Z,18.83
2022-11-24T04:39:20.149Z,18.27
2022-11-24T04:39:37.460Z,18.95
2022-11-24T04:40:39.300Z,20.05
2022-11-24T04:41:41.239Z,20.85
2022-11-24T04:42:43.028Z,20.17
2022-11-24T04:43:45.207Z,19.85
2022-11-24T04:44:47.343Z,17.60
2022-11-24T04:45:49.126Z,18.10
2022-11-24T04:46:51.212Z,19.13
2022-11-24T04:47:53.232Z,19.27
2022-11-24T04:48:55.004Z,18.58
2022-11-24T04:49:56.846Z,18.25
2022-11-24T04:50:58.827Z,18.67
2022-11-24T04:52:00.640Z,17.65
2022-11-24T04:53:02.420Z,18.42
2022-11-24T04:54:04.934Z,18.73
2022-11-24T04:55:07.258Z,18.63
2022-11-24T04:56:09.678Z,18.60
2022-11-24T04:57:22.789Z,18.63
2022-11-24T04:58:24.875Z,18.60
2022-11-24T04:59:33.230Z,18.15
2022-11-24T05:00:36.647Z,17.85
2022-11-24T05:01:39.063Z,20.20
2022-11-24T05:02:41.020Z,19.23
2022-11-24T05:03:51.104Z,21.77
2022-11-24T05:04:54.566Z,19.02
2022-11-24T05:05:59.880Z,18.05
2022-11-24T05:07:02.106Z,18.20
2022-11-24T05:08:05.916Z,18.70
2022-11-24T05:09:08.903Z,18.98
2022-11-24T05:10:29.467Z,18.73
2022-11-24T05:11:32.766Z,18.67
2022-11-24T05:12:39.625Z,17.85
2022-11-24T05:13:48.632Z,17.85
2022-11-24T05:14:52.016Z,18.50
2022-11-24T05:15:54.193Z,19.90
2022-11-24T05:17:14.919Z,19.63
2022-11-24T05:18:17.172Z,18.48
2022-11-24T05:19:19.887Z,18.38
2022-11-24T05:20:22.351Z,19.45
2022-11-24T05:21:25.290Z,18.58
2022-11-24T05:22:29.050Z,19.17
2022-11-24T05:23:36.976Z,18.23
2022-11-24T05:24:43.216Z,18.13
2022-11-24T05:25:47.573Z,18.90
2022-11-24T05:26:49.798Z,16.52
2022-11-24T05:27:51.788Z,17.90
2022-11-24T05:28:53.891Z,19.05
2022-11-24T05:29:56.263Z,19.80
2022-11-24T05:31:05.386Z,18.70
2022-11-24T05:32:12.979Z,18.73
2022-11-24T05:33:23.026Z,19.25
2022-11-24T05:34:31.208Z,18.10
2022-11-24T05:35:34.227Z,18.60
2022-11-24T05:36:54.239Z,18.00
2022-11-24T05:37:57.948Z,17.05
2022-11-24T05:39:00.284Z,18.05
2022-11-24T05:40:02.454Z,18.70
2022-11-24T05:41:05.623Z,18.52
2022-11-24T05:42:26.911Z,19.63
2022-11-24T05:43:29.146Z,19.88
2022-11-24T05:44:34.413Z,18.52
2022-11-24T05:45:36.368Z,20.10
2022-11-24T05:46:38.572Z,19.63
2022-11-24T05:47:41.599Z,21.05
2022-11-24T05:48:43.547Z,20.58
2022-11-24T05:49:45.820Z,20.58
2022-11-24T05:50:54.427Z,17.63
2022-11-24T05:51:56.246Z,18.88
2022-11-24T05:53:05.403Z,18.33
2022-11-24T05:54:07.255Z,19.58
2022-11-24T05:55:10.859Z,18.05
2022-11-24T05:56:12.688Z,18.58
2022-11-24T05:57:16.266Z,18.27
2022-11-24T05:58:18.228Z,17.02
2022-11-24T05:59:19.992Z,19.80
2022-11-24T06:00:21.882Z,22.45
2022-11-24T06:01:23.775Z,21.40
2022-11-24T06:02:26.053Z,21.40
2022-11-24T06:03:28.190Z,20.45
2022-11-24T06:04:30.135Z,20.98
2022-11-24T06:05:33.294Z,18.17
2022-11-24T06:06:35.631Z,18.73
2022-11-24T06:07:37.686Z,17.50
2022-11-24T06:08:39.810Z,18.08
2022-11-24T06:09:49.584Z,19.05
2022-11-24T06:10:51.998Z,18.27
2022-11-24T06:11:54.106Z,18.40
2022-11-24T06:12:56.162Z,18.42
2022-11-24T06:13:58.491Z,17.55
2022-11-24T06:15:01.485Z,18.48
2022-11-24T06:16:03.842Z,16.95
2022-11-24T06:17:06.394Z,16.48
2022-11-24T06:18:08.317Z,16.45
2022-11-24T06:19:11.475Z,17.25
2022-11-24T06:20:13.477Z,16.60
2022-11-24T06:21:15.209Z,15.40
2022-11-24T06:22:19.063Z,15.77
2022-11-24T06:23:21.282Z,15.98
2022-11-24T06:24:23.501Z,16.85
2022-11-24T06:25:25.446Z,17.42
2022-11-24T06:26:27.894Z,17.63
2022-11-24T06:27:29.786Z,16.63
2022-11-24T06:28:32.320Z,16.27
2022-11-24T06:29:34.288Z,16.52
2022-11-24T06:30:36.149Z,15.68
2022-11-24T06:31:38.177Z,15.02
2022-11-24T06:32:49.066Z,15.95
2022-11-24T06:33:51.740Z,16.50
2022-11-24T06:34:53.581Z,16.60
2022-11-24T06:36:01.550Z,18.45
2022-11-24T06:37:03.501Z,18.65
2022-11-24T06:38:05.548Z,30.50
2022-11-24T06:39:07.889Z,35.17
2022-11-24T06:40:10.408Z,31.45
2022-11-24T06:41:15.087Z,27.00
2022-11-24T06:42:21.591Z,25.40
2022-11-24T06:43:23.550Z,23.00
2022-11-24T06:44:25.878Z,21.52
2022-11-24T06:45:27.823Z,18.58
2022-11-24T06:46:29.715Z,18.40
2022-11-24T06:47:31.438Z,17.80
2022-11-24T06:48:34.267Z,16.65
2022-11-24T06:49:36.004Z,16.33
2022-11-24T06:50:37.791Z,16.02
2022-11-24T06:51:39.614Z,17.17
2022-11-24T06:52:41.370Z,16.30
2022-11-24T06:53:43.107Z,16.15
2022-11-24T06:54:44.851Z,16.52
2022-11-24T06:55:47.819Z,16.95
2022-11-24T06:56:49.560Z,16.40
2022-11-24T06:57:51.272Z,21.42
2022-11-24T06:58:54.000Z,22.08
2022-11-24T06:59:56.340Z,19.42
2022-11-24T07:01:00.224Z,17.63
2022-11-24T07:02:02.438Z,16.75
2022-11-24T07:03:04.577Z,15.88
2022-11-24T07:04:06.303Z,15.90
2022-11-24T07:05:08.407Z,15.70
2022-11-24T07:06:10.312Z,16.48
2022-11-24T07:07:12.707Z,16.88
2022-11-24T07:08:17.916Z,16.40
2022-11-24T07:09:19.925Z,16.63
2022-11-24T07:10:22.044Z,16.15
2022-11-24T07:11:24.764Z,18.17
2022-11-24T07:12:26.467Z,17.33
2022-11-24T07:13:28.154Z,19.95
2022-11-24T07:14:29.887Z,21.60
2022-11-24T07:15:31.679Z,46.53
2022-11-24T07:16:34.249Z,37.78
2022-11-24T07:17:40.121Z,33.13
2022-11-24T07:18:46.070Z,32.17
2022-11-24T07:19:47.766Z,30.75
2022-11-24T07:20:49.473Z,27.50
2022-11-24T07:21:51.699Z,24.08
2022-11-24T07:22:59.516Z,21.65
2022-11-24T07:24:01.259Z,23.40
2022-11-24T07:25:07.115Z,26.65
2022-11-24T07:26:10.456Z,37.25
2022-11-24T07:27:12.336Z,37.88
2022-11-24T07:28:14.147Z,39.17
2022-11-24T07:29:15.898Z,26.13
2022-11-24T07:30:18.091Z,27.40
2022-11-24T07:31:22.159Z,25.98
2022-11-24T07:32:24.118Z,24.08
2022-11-24T07:33:26.230Z,20.52
2022-11-24T07:34:28.126Z,18.50
2022-11-24T07:35:30.826Z,18.88
2022-11-24T07:36:32.562Z,17.10
2022-11-24T07:37:34.429Z,16.33
2022-11-24T07:38:36.835Z,16.10
2022-11-24T07:39:38.622Z,16.05
2022-11-24T07:40:40.320Z,18.05
2022-11-24T07:41:42.021Z,17.23
2022-11-24T07:42:43.758Z,16.35
2022-11-24T07:43:46.078Z,16.27
2022-11-24T07:44:47.835Z,15.25
2022-11-24T07:45:53.508Z,15.20
2022-11-24T07:46:55.635Z,17.10
2022-11-24T07:47:57.740Z,17.70
2022-11-24T07:48:59.500Z,21.08
2022-11-24T07:50:01.521Z,23.33
2022-11-24T07:51:04.732Z,21.90
2022-11-24T07:52:08.406Z,24.40
2022-11-24T07:53:10.336Z,20.80
2022-11-24T07:54:12.479Z,19.88
2022-11-24T07:55:14.736Z,23.77
2022-11-24T07:56:16.574Z,21.50
2022-11-24T07:57:18.315Z,22.45
2022-11-24T07:58:20.072Z,26.92
2022-11-24T07:59:21.850Z,20.75
2022-11-24T08:00:23.642Z,18.17
2022-11-24T08:01:25.439Z,18.63
2022-11-24T08:02:27.443Z,15.98
2022-11-24T08:03:29.263Z,16.48
2022-11-24T08:04:31.326Z,16.00
2022-11-24T08:05:33.218Z,14.35
2022-11-24T08:06:40.805Z,14.05
2022-11-24T08:07:46.463Z,19.05
2022-11-24T08:08:48.273Z,21.50
2022-11-24T08:09:50.542Z,25.52
2022-11-24T08:10:52.764Z,21.10
2022-11-24T08:11:54.482Z,17.20
2022-11-24T08:13:00.417Z,16.52
2022-11-24T08:14:02.159Z,16.88
2022-11-24T08:15:09.440Z,18.58
2022-11-24T08:16:17.886Z,19.27
2022-11-24T08:17:20.201Z,15.80
2022-11-24T08:18:24.561Z,14.60
2022-11-24T08:19:26.369Z,15.38
2022-11-24T08:20:28.139Z,16.27
2022-11-24T08:21:29.878Z,15.68
2022-11-24T08:22:31.646Z,15.48
2022-11-24T08:23:33.938Z,15.35
2022-11-24T08:24:36.170Z,15.43
2022-11-24T08:25:38.128Z,14.35
2022-11-24T08:26:40.195Z,14.48
2022-11-24T08:27:41.940Z,14.43
2022-11-24T08:28:45.845Z,13.82
2022-11-24T08:29:47.580Z,13.10
2022-11-24T08:30:49.419Z,14.43
2022-11-24T08:31:51.197Z,18.20
2022-11-24T08:32:54.037Z,21.30
2022-11-24T08:33:56.398Z,17.17
2022-11-24T08:35:13.032Z,17.25
2022-11-24T08:36:18.710Z,15.35
2022-11-24T08:37:20.447Z,15.88
2022-11-24T08:38:22.152Z,15.80
2022-11-24T08:39:23.987Z,14.75
2022-11-24T08:40:26.073Z,15.00
2022-11-24T08:41:29.460Z,13.18
2022-11-24T08:42:31.545Z,13.82
2022-11-24T08:43:33.517Z,14.77
2022-11-24T08:44:35.594Z,15.10
2022-11-24T08:45:41.365Z,14.55
2022-11-24T08:46:44.640Z,14.88
2022-11-24T08:47:46.368Z,14.07
2022-11-24T08:48:50.280Z,15.00
2022-11-24T08:49:52.434Z,13.02
2022-11-24T08:50:54.261Z,13.45
2022-11-24T08:51:57.659Z,14.23
2022-11-24T08:52:59.564Z,14.13
2022-11-24T08:54:02.192Z,13.52
2022-11-24T08:55:04.334Z,13.43
2022-11-24T08:56:07.375Z,12.80
2022-11-24T08:57:09.107Z,13.32
2022-11-24T08:58:10.960Z,13.70
2022-11-24T08:59:14.023Z,13.90
2022-11-24T09:00:22.485Z,13.13
2022-11-24T09:01:25.067Z,12.63
2022-11-24T09:02:27.272Z,12.60
2022-11-24T09:03:29.356Z,13.07
2022-11-24T09:04:31.208Z,12.52
2022-11-24T09:06:55.209Z,12.98
2022-11-24T09:07:57.945Z,13.07
2022-11-24T09:09:00.080Z,13.07
2022-11-24T09:10:02.093Z,13.75
2022-11-24T09:11:06.392Z,13.35
2022-11-24T09:12:14.209Z,13.07
2022-11-24T09:13:16.361Z,12.48
2022-11-24T09:14:18.151Z,12.40
2022-11-24T09:15:20.723Z,13.93
2022-11-24T09:16:26.037Z,12.80
2022-11-24T09:17:28.028Z,13.75
2022-11-24T09:18:30.503Z,13.23
2022-11-24T09:19:32.791Z,12.90
2022-11-24T09:20:34.861Z,13.48
2022-11-24T09:21:39.496Z,14.38
2022-11-24T09:22:43.047Z,27.55
2022-11-24T09:23:48.413Z,22.05
2022-11-24T09:24:50.194Z,25.35
2022-11-24T09:25:51.952Z,24.13
2022-11-24T09:26:55.887Z,20.42
2022-11-24T09:27:58.625Z,18.63
2022-11-24T09:29:02.007Z,14.13
2022-11-24T09:30:04.811Z,14.38
2022-11-24T09:31:10.464Z,14.45
2022-11-24T09:32:12.858Z,15.10
2022-11-24T09:33:14.607Z,15.80
2022-11-24T09:34:16.867Z,15.13
2022-11-24T09:35:18.702Z,13.82
2022-11-24T09:36:21.292Z,14.27
2022-11-24T09:37:25.937Z,13.23
2022-11-24T09:38:31.631Z,14.60
2022-11-24T09:39:33.646Z,15.13
2022-11-24T09:40:35.703Z,14.95
2022-11-24T09:42:04.317Z,16.45
2022-11-24T09:43:41.395Z,14.00
2022-11-24T09:44:58.652Z,13.45
2022-11-24T09:46:13.069Z,14.00
2022-11-24T09:47:38.849Z,13.52
2022-11-24T09:48:46.383Z,14.13
2022-11-24T09:50:18.955Z,13.98
2022-11-24T09:51:25.886Z,12.35
2022-11-24T09:52:41.140Z,12.45
2022-11-24T09:53:59.809Z,12.68
2022-11-24T09:55:05.086Z,12.90
2022-11-24T09:56:33.474Z,12.82
2022-11-24T09:57:37.715Z,12.32
2022-11-24T09:59:00.951Z,11.75
2022-11-24T10:00:12.254Z,11.82
2022-11-24T10:02:32.452Z,11.98
2022-11-24T10:03:34.375Z,11.73
2022-11-24T10:04:42.070Z,12.43
2022-11-24T10:05:45.886Z,12.35
2022-11-24T10:07:00.587Z,12.18
2022-11-24T10:08:21.290Z,12.07
2022-11-24T10:09:33.017Z,11.43
2022-11-24T10:10:47.893Z,12.23
2022-11-24T10:12:10.546Z,12.65
2022-11-24T10:14:04.320Z,14.18
2022-11-24T10:15:41.042Z,11.80
2022-11-24T10:16:53.025Z,11.65
2022-11-24T10:18:09.301Z,12.55
2022-11-24T10:19:33.888Z,11.93
2022-11-24T10:20:57.127Z,12.90
2022-11-24T10:22:02.208Z,11.65
2022-11-24T10:23:13.464Z,12.23
2022-11-24T10:25:48.686Z,10.80
2022-11-24T10:27:16.083Z,10.88
2022-11-24T10:28:19.508Z,11.27
2022-11-24T10:29:56.169Z,11.77
2022-11-24T10:31:48.029Z,11.85
2022-11-24T10:33:08.531Z,11.52
2022-11-24T10:34:21.406Z,11.43
2022-11-24T10:35:36.792Z,11.43
2022-11-24T10:37:09.754Z,11.55
2022-11-24T10:38:35.553Z,10.52
2022-11-24T10:39:59.736Z,11.45
2022-11-24T10:41:24.716Z,13.15
2022-11-24T10:42:32.565Z,13.98
2022-11-24T10:43:34.301Z,12.75
2022-11-24T10:44:36.435Z,12.45
2022-11-24T10:45:39.764Z,12.73
2022-11-24T10:46:42.309Z,12.38
2022-11-24T10:47:45.629Z,13.50
2022-11-24T10:48:51.759Z,13.48
2022-11-24T10:49:59.691Z,12.77
2022-11-24T10:51:38.626Z,12.02
2022-11-24T10:52:44.154Z,12.75
2022-11-24T10:53:47.169Z,11.32
2022-11-24T10:55:03.659Z,12.15
2022-11-24T10:56:06.158Z,11.40
2022-11-24T10:57:08.124Z,11.75
2022-11-24T10:58:17.257Z,11.70
2022-11-24T10:59:25.018Z,12.80
2022-11-24T11:00:26.884Z,12.57
2022-11-24T11:01:32.697Z,12.73
2022-11-24T11:02:37.666Z,12.43
2022-11-24T11:04:16.326Z,12.70
2022-11-24T11:05:33.007Z,12.90
2022-11-24T11:06:36.345Z,13.07
2022-11-24T11:07:38.220Z,13.02
2022-11-24T11:08:40.184Z,12.77
2022-11-24T11:09:42.118Z,12.23
2022-11-24T11:10:45.040Z,12.38
2022-11-24T11:11:51.208Z,12.85
2022-11-24T11:12:52.963Z,12.23
2022-11-24T11:14:05.106Z,12.48
2022-11-24T11:15:29.939Z,12.27
2022-11-24T11:16:52.531Z,11.80
2022-11-24T11:18:01.228Z,13.02
2022-11-24T11:19:47.881Z,12.57
2022-11-24T11:21:05.678Z,11.45
2022-11-24T11:22:13.279Z,13.27
2022-11-24T11:23:27.351Z,11.57
2022-11-24T11:24:29.810Z,11.27
2022-11-24T11:25:35.396Z,12.18
2022-11-24T11:26:38.671Z,13.55
2022-11-24T11:27:42.111Z,12.18
2022-11-24T11:34:48.091Z,10.68
2022-11-24T11:35:51.056Z,11.88
2022-11-24T11:36:56.143Z,10.35
2022-11-24T11:38:04.054Z,11.68
2022-11-24T11:39:05.966Z,11.00
2022-11-24T11:40:22.115Z,11.65
2022-11-24T11:41:46.221Z,11.88
2022-11-24T11:43:02.428Z,12.20
2022-11-24T11:44:25.790Z,12.38
2022-11-24T11:45:41.617Z,12.23
2022-11-24T11:46:45.011Z,13.05
2022-11-24T11:47:59.272Z,12.25
2022-11-24T11:49:01.157Z,12.90
2022-11-24T11:50:03.115Z,12.45
2022-11-24T11:51:25.915Z,12.60
2022-11-24T11:52:33.040Z,10.65
2022-11-24T11:53:53.712Z,11.50
2022-11-24T11:55:29.966Z,12.65
2022-11-24T11:56:40.278Z,13.63
2022-11-24T11:57:54.348Z,17.37
2022-11-24T11:59:06.910Z,16.25
2022-11-24T12:00:13.278Z,12.88
2022-11-24T12:01:36.046Z,14.38
2022-11-24T12:02:53.389Z,14.07
2022-11-24T12:03:55.783Z,13.02
2022-11-24T12:05:01.862Z,14.15
2022-11-24T12:06:15.440Z,14.82
2022-11-24T12:07:19.785Z,16.15
2022-11-24T12:08:24.322Z,17.08
2022-11-24T12:09:56.146Z,13.32
2022-11-24T12:11:24.132Z,13.30
2022-11-24T12:12:49.456Z,20.05
2022-11-24T12:14:20.556Z,18.80
2022-11-24T12:15:43.059Z,28.80
2022-11-24T12:17:28.918Z,31.23
2022-11-24T12:18:57.684Z,24.52
2022-11-24T12:20:30.380Z,20.40
2022-11-24T12:21:52.446Z,20.02
2022-11-24T12:22:56.675Z,21.50
2022-11-24T12:24:13.076Z,16.23
2022-11-24T12:25:26.874Z,12.35
2022-11-24T12:26:37.848Z,15.95
2022-11-24T12:27:50.326Z,12.52
2022-11-24T12:29:07.229Z,13.18
2022-11-24T12:30:17.180Z,12.95
2022-11-24T12:31:44.383Z,13.95
2022-11-24T12:33:17.248Z,12.95
2022-11-24T12:34:44.534Z,11.55
2022-11-24T12:35:52.358Z,10.82
2022-11-24T12:37:12.648Z,10.73
2022-11-24T12:38:42.643Z,10.20
2022-11-24T12:40:18.743Z,10.63
2022-11-24T12:43:09.795Z,11.95
2022-11-24T12:44:44.499Z,11.77
2022-11-24T12:45:58.359Z,10.93
2022-11-24T12:47:28.598Z,10.43
2022-11-24T12:48:33.610Z,13.70
2022-11-24T12:49:43.945Z,17.00
2022-11-24T12:50:46.944Z,16.10
2022-11-24T12:51:55.959Z,13.55
2022-11-24T12:53:05.214Z,13.57
2022-11-24T12:54:13.028Z,14.32
2022-11-24T12:55:22.326Z,15.02
2022-11-24T12:56:37.012Z,15.68
2022-11-24T12:58:18.196Z,15.13
2022-11-24T12:59:28.385Z,13.48
2022-11-24T13:00:34.882Z,17.75
2022-11-24T13:01:47.377Z,13.52
2022-11-24T13:03:14.299Z,12.88
2022-11-24T13:04:38.052Z,12.85
2022-11-24T13:06:03.022Z,11.48
2022-11-24T13:07:11.174Z,11.05
2022-11-24T13:08:17.920Z,12.43
2022-11-24T13:09:20.162Z,15.27
2022-11-24T13:10:55.315Z,14.23
2022-11-24T13:11:53.153Z,14.98
2022-11-24T13:12:55.927Z,13.23
2022-11-24T13:14:06.663Z,12.63
2022-11-24T13:15:43.586Z,12.68
2022-11-24T13:18:43.322Z,28.88
2022-11-24T13:19:46.136Z,35.92
2022-11-24T13:20:48.316Z,22.80
2022-11-24T13:22:01.705Z,24.48
2022-11-24T13:23:05.140Z,19.17
2022-11-24T13:24:23.143Z,15.63
2022-11-24T13:25:35.783Z,15.18
2022-11-24T13:26:43.582Z,12.65
2022-11-24T13:27:48.531Z,11.32
2022-11-24T13:29:13.402Z,11.13
2022-11-24T13:30:35.380Z,10.48
2022-11-24T13:31:37.267Z,9.60
2022-11-24T13:32:39.006Z,9.73
2022-11-24T13:33:40.841Z,10.55
2022-11-24T13:34:42.877Z,10.13
2022-11-24T13:36:02.594Z,10.60
2022-11-24T13:37:31.408Z,11.63
2022-11-24T13:38:44.355Z,10.27
2022-11-24T13:39:58.254Z,9.50
2022-11-24T13:41:27.083Z,9.77
2022-11-24T13:42:41.476Z,9.23
2022-11-24T13:44:25.329Z,10.15
2022-11-24T13:45:43.096Z,9.88
2022-11-24T13:47:05.306Z,10.05
2022-11-24T13:48:21.185Z,10.15
2022-11-24T13:49:24.378Z,10.23
2022-11-24T13:50:53.378Z,10.02
2022-11-24T13:52:39.524Z,9.73
2022-11-24T13:53:45.773Z,10.38
2022-11-24T13:54:47.607Z,10.50
2022-11-24T13:55:58.128Z,11.85
2022-11-24T13:57:33.786Z,11.05
2022-11-24T13:59:02.803Z,10.35
2022-11-24T14:00:18.154Z,10.50
2022-11-24T14:01:24.607Z,10.40
2022-11-24T14:02:26.657Z,9.95
2022-11-24T14:03:38.949Z,10.38
2022-11-24T14:04:44.819Z,10.30
2022-11-24T14:05:53.267Z,9.80
2022-11-24T14:07:07.085Z,9.77
2022-11-24T14:08:20.153Z,9.50
2022-11-24T14:09:21.949Z,12.82
2022-11-24T14:10:36.369Z,11.23
2022-11-24T14:11:38.269Z,11.27
2022-11-24T14:12:40.017Z,9.70
2022-11-24T14:13:41.766Z,10.10
2022-11-24T14:14:45.465Z,10.23
2022-11-24T14:16:02.382Z,9.98
2022-11-24T14:17:16.001Z,8.98
2022-11-24T14:18:21.613Z,8.68
2022-11-24T14:19:27.961Z,9.13
2022-11-24T14:20:32.638Z,10.57
2022-11-24T14:21:38.146Z,9.90
2022-11-24T14:22:41.276Z,9.88
2022-11-24T14:23:45.800Z,10.05
2022-11-24T14:24:58.803Z,10.05
2022-11-24T14:26:00.636Z,11.02
2022-11-24T14:27:02.410Z,10.23
2022-11-24T14:28:39.626Z,10.63
2022-11-24T14:30:02.165Z,9.90
2022-11-24T14:31:26.374Z,9.95
2022-11-24T14:32:28.736Z,9.35
2022-11-24T14:33:30.584Z,10.00
2022-11-24T14:34:36.006Z,10.63
2022-11-24T14:35:45.247Z,9.45
2022-11-24T14:36:48.575Z,10.40
2022-11-24T14:37:50.372Z,9.70
2022-11-24T14:38:52.542Z,10.25